createdAt,value
2019-03-16T00:00:58.290Z,994.35
2019-03-16T00:01:58.315Z,994.38
2019-03-16T00:02:58.269Z,994.45
2019-03-16T00:03:58.251Z,994.46
2019-03-16T00:04:58.241Z,994.48
2019-03-16T00:05:58.230Z,994.55
2019-03-16T00:06:58.220Z,994.50
2019-03-16T00:07:58.246Z,994.70
2019-03-16T00:08:58.197Z,994.77
2019-03-16T00:09:58.187Z,994.53
2019-03-16T00:10:58.178Z,994.73
2019-03-16T00:11:58.400Z,994.66
2019-03-16T00:12:58.154Z,994.63
2019-03-16T00:13:58.179Z,994.63
2019-03-16T00:14:58.129Z,994.67
2019-03-16T00:15:58.118Z,994.63
2019-03-16T00:16:58.106Z,994.66
2019-03-16T00:17:58.100Z,994.70
2019-03-16T00:18:58.085Z,994.67
2019-03-16T00:19:58.101Z,994.72
2019-03-16T00:20:58.064Z,994.70
2019-03-16T00:21:58.051Z,994.67
2019-03-16T00:22:58.040Z,994.66
2019-03-16T00:23:58.029Z,994.70
2019-03-16T00:24:58.055Z,994.79
2019-03-16T00:25:58.008Z,994.75
2019-03-16T00:26:57.996Z,994.82
2019-03-16T00:27:57.987Z,994.81
2019-03-16T00:28:57.974Z,994.83
2019-03-16T00:29:57.963Z,994.83
2019-03-16T00:30:57.992Z,994.77
2019-03-16T00:31:57.940Z,994.94
2019-03-16T00:32:57.929Z,994.78
2019-03-16T00:33:57.921Z,994.86
2019-03-16T00:34:57.906Z,994.93
2019-03-16T00:35:57.896Z,995.09
2019-03-16T00:36:57.911Z,995.01
2019-03-16T00:37:57.890Z,995.12
2019-03-16T00:38:57.863Z,995.10
2019-03-16T00:39:57.852Z,995.16
2019-03-16T00:40:57.841Z,995.18
2019-03-16T00:41:57.867Z,995.20
2019-03-16T00:42:57.821Z,995.18
2019-03-16T00:43:57.808Z,994.96
2019-03-16T00:44:57.797Z,995.14
2019-03-16T00:45:57.791Z,995.20
2019-03-16T00:46:57.774Z,995.20
2019-03-16T00:47:57.801Z,995.18
2019-03-16T00:48:57.753Z,995.20
2019-03-16T00:49:57.739Z,995.21
2019-03-16T00:50:57.730Z,995.24
2019-03-16T00:51:57.717Z,995.34
2019-03-16T00:52:57.773Z,995.20
2019-03-16T00:53:57.721Z,995.28
2019-03-16T00:54:57.685Z,995.26
2019-03-16T00:55:57.676Z,995.23
2019-03-16T00:56:57.665Z,995.26
2019-03-16T00:57:57.732Z,995.37
2019-03-16T00:58:57.679Z,995.32
2019-03-16T00:59:57.629Z,995.30
2019-03-16T01:00:57.623Z,995.38
2019-03-16T01:01:57.610Z,995.29
2019-03-16T01:02:57.598Z,995.37
2019-03-16T01:03:57.587Z,995.26
2019-03-16T01:04:57.613Z,995.32
2019-03-16T01:05:57.565Z,995.23
2019-03-16T01:06:57.553Z,995.30
2019-03-16T01:07:57.542Z,995.32
2019-03-16T01:08:57.530Z,995.33
2019-03-16T01:09:57.528Z,995.39
2019-03-16T01:10:57.544Z,995.47
2019-03-16T01:11:57.498Z,995.43
2019-03-16T01:12:57.489Z,995.42
2019-03-16T01:13:57.481Z,995.45
2019-03-16T01:14:57.463Z,995.46
2019-03-16T01:15:57.454Z,995.56
2019-03-16T01:16:57.467Z,995.56
2019-03-16T01:17:57.431Z,995.53
2019-03-16T01:18:57.421Z,995.59
2019-03-16T01:19:57.419Z,995.59
2019-03-16T01:20:57.400Z,995.49
2019-03-16T01:21:57.425Z,995.61
2019-03-16T01:22:57.377Z,995.67
2019-03-16T01:23:57.366Z,995.72
2019-03-16T01:24:57.356Z,995.76
2019-03-16T01:25:57.343Z,995.71
2019-03-16T01:26:57.332Z,995.77
2019-03-16T01:27:57.358Z,995.69
2019-03-16T01:28:57.310Z,995.59
2019-03-16T01:29:57.298Z,995.56
2019-03-16T01:30:57.289Z,995.57
2019-03-16T01:31:57.279Z,995.67
2019-03-16T01:32:57.266Z,995.67
2019-03-16T01:33:57.280Z,995.72
2019-03-16T01:34:57.244Z,995.68
2019-03-16T01:35:57.237Z,995.75
2019-03-16T01:36:57.220Z,995.74
2019-03-16T01:37:57.209Z,995.79
2019-03-16T01:38:57.236Z,995.82
2019-03-16T01:39:57.189Z,995.82
2019-03-16T01:40:57.179Z,995.87
2019-03-16T01:41:57.166Z,995.93
2019-03-16T01:42:57.156Z,995.97
2019-03-16T01:43:57.146Z,996.01
2019-03-16T01:44:57.172Z,996.01
2019-03-16T01:45:57.124Z,996.03
2019-03-16T01:46:57.110Z,996.00
2019-03-16T01:47:57.106Z,995.96
2019-03-16T01:48:57.090Z,996.09
2019-03-16T01:49:57.077Z,996.00
2019-03-16T01:50:57.103Z,996.00
2019-03-16T01:51:57.142Z,996.02
2019-03-16T01:52:57.045Z,995.99
2019-03-16T01:53:57.035Z,995.93
2019-03-16T01:54:57.022Z,995.90
2019-03-16T01:55:57.012Z,995.94
2019-03-16T01:56:57.038Z,995.89
2019-03-16T01:57:56.989Z,995.88
2019-03-16T01:58:56.979Z,996.03
2019-03-16T01:59:56.969Z,995.97
2019-03-16T02:00:56.958Z,995.98
2019-03-16T02:01:56.944Z,996.03
2019-03-16T02:02:56.973Z,996.04
2019-03-16T02:03:56.924Z,995.97
2019-03-16T02:04:56.913Z,996.00
2019-03-16T02:05:56.900Z,995.99
2019-03-16T02:06:56.889Z,995.98
2019-03-16T02:07:56.879Z,995.95
2019-03-16T02:08:56.904Z,996.01
2019-03-16T02:09:56.855Z,995.95
2019-03-16T02:10:56.844Z,996.10
2019-03-16T02:11:56.838Z,996.08
2019-03-16T02:12:56.825Z,996.08
2019-03-16T02:13:56.812Z,996.08
2019-03-16T02:14:56.837Z,996.17
2019-03-16T02:16:09.980Z,996.02
2019-03-16T02:16:57.779Z,996.00
2019-03-16T02:17:56.771Z,996.00
2019-03-16T02:18:56.760Z,996.10
2019-03-16T02:19:56.748Z,996.12
2019-03-16T02:20:56.775Z,996.12
2019-03-16T02:21:56.725Z,996.22
2019-03-16T02:22:56.713Z,996.08
2019-03-16T02:23:56.704Z,996.14
2019-03-16T02:24:56.694Z,996.20
2019-03-16T02:25:56.682Z,996.30
2019-03-16T02:26:56.709Z,996.31
2019-03-16T02:27:56.662Z,996.20
2019-03-16T02:28:56.653Z,996.28
2019-03-16T02:29:56.639Z,996.30
2019-03-16T02:30:56.635Z,996.26
2019-03-16T02:31:56.620Z,996.24
2019-03-16T02:33:11.794Z,996.33
2019-03-16T02:33:57.597Z,996.34
2019-03-16T02:34:56.599Z,996.35
2019-03-16T02:35:56.713Z,996.44
2019-03-16T02:36:56.573Z,996.42
2019-03-16T02:37:56.720Z,996.44
2019-03-16T02:38:56.581Z,996.41
2019-03-16T02:39:56.531Z,996.49
2019-03-16T02:40:56.521Z,996.46
2019-03-16T02:41:56.512Z,996.46
2019-03-16T02:42:56.501Z,996.51
2019-03-16T02:43:56.489Z,996.51
2019-03-16T02:44:56.513Z,996.62
2019-03-16T02:45:56.466Z,996.52
2019-03-16T02:46:56.462Z,996.68
2019-03-16T02:47:56.447Z,996.59
2019-03-16T02:48:56.440Z,996.66
2019-03-16T02:49:56.424Z,996.76
2019-03-16T02:50:56.460Z,996.75
2019-03-16T02:51:56.405Z,996.76
2019-03-16T02:52:56.398Z,996.72
2019-03-16T02:53:56.383Z,996.82
2019-03-16T02:54:56.378Z,996.83
2019-03-16T02:55:56.361Z,996.93
2019-03-16T02:56:56.387Z,996.82
2019-03-16T02:57:56.353Z,996.85
2019-03-16T02:58:56.328Z,996.92
2019-03-16T02:59:56.325Z,996.88
2019-03-16T03:00:56.324Z,996.97
2019-03-16T03:01:56.337Z,996.92
2019-03-16T03:02:56.326Z,996.98
2019-03-16T03:03:56.278Z,996.99
2019-03-16T03:04:56.267Z,996.91
2019-03-16T03:05:56.254Z,996.91
2019-03-16T03:06:56.242Z,996.97
2019-03-16T03:07:56.234Z,996.99
2019-03-16T03:08:56.259Z,997.03
2019-03-16T03:09:56.212Z,996.99
2019-03-16T03:10:56.199Z,996.96
2019-03-16T03:11:56.195Z,996.95
2019-03-16T03:12:56.177Z,996.99
2019-03-16T03:13:56.169Z,996.98
2019-03-16T03:14:56.197Z,996.98
2019-03-16T03:15:56.148Z,996.97
2019-03-16T03:16:56.143Z,997.00
2019-03-16T03:17:56.132Z,996.99
2019-03-16T03:18:56.115Z,997.01
2019-03-16T03:19:56.109Z,997.05
2019-03-16T03:20:56.130Z,997.05
2019-03-16T03:21:56.081Z,997.13
2019-03-16T03:22:56.069Z,997.11
2019-03-16T03:23:56.064Z,997.08
2019-03-16T03:24:56.049Z,997.06
2019-03-16T03:25:56.035Z,997.05
2019-03-16T03:26:56.062Z,997.08
2019-03-16T03:27:56.015Z,997.08
2019-03-16T03:28:56.006Z,997.19
2019-03-16T03:29:57.579Z,997.28
2019-03-16T03:30:56.001Z,997.18
2019-03-16T03:31:55.974Z,997.23
2019-03-16T03:32:56.012Z,997.16
2019-03-16T03:34:01.607Z,997.23
2019-03-16T03:34:56.943Z,997.27
2019-03-16T03:35:55.929Z,997.29
2019-03-16T03:36:55.918Z,997.32
2019-03-16T03:37:55.914Z,997.25
2019-03-16T03:38:55.933Z,997.33
2019-03-16T03:39:55.893Z,997.37
2019-03-16T03:40:55.874Z,997.38
2019-03-16T03:41:55.865Z,997.38
2019-03-16T03:42:55.905Z,997.34
2019-03-16T03:43:55.844Z,997.41
2019-03-16T03:44:55.948Z,997.31
2019-03-16T03:45:55.827Z,997.35
2019-03-16T03:46:55.814Z,997.41
2019-03-16T03:47:55.809Z,997.52
2019-03-16T03:48:55.792Z,997.52
2019-03-16T03:49:55.779Z,997.46
2019-03-16T03:50:55.804Z,997.57
2019-03-16T03:51:55.757Z,997.59
2019-03-16T03:52:55.747Z,997.64
2019-03-16T03:53:55.735Z,997.61
2019-03-16T03:54:55.727Z,997.64
2019-03-16T03:55:55.715Z,997.76
2019-03-16T03:56:55.754Z,997.64
2019-03-16T03:57:55.695Z,997.61
2019-03-16T03:58:55.683Z,997.72
2019-03-16T03:59:55.672Z,997.76
2019-03-16T04:00:55.675Z,997.56
2019-03-16T04:01:55.651Z,997.59
2019-03-16T04:02:55.680Z,997.68
2019-03-16T04:04:13.717Z,997.70
2019-03-16T04:04:56.622Z,997.63
2019-03-16T04:05:55.606Z,997.71
2019-03-16T04:06:55.596Z,997.81
2019-03-16T04:07:55.593Z,997.81
2019-03-16T04:08:55.624Z,997.74
2019-03-16T04:09:55.565Z,997.80
2019-03-16T04:10:55.556Z,997.77
2019-03-16T04:12:02.588Z,997.77
2019-03-16T04:12:55.537Z,997.77
2019-03-16T04:13:55.521Z,997.75
2019-03-16T04:14:55.548Z,997.79
2019-03-16T04:15:55.501Z,997.88
2019-03-16T04:16:55.491Z,997.83
2019-03-16T04:17:55.481Z,997.88
2019-03-16T04:18:55.469Z,997.86
2019-03-16T04:19:55.462Z,997.98
2019-03-16T04:20:55.477Z,997.94
2019-03-16T04:21:55.439Z,997.91
2019-03-16T04:22:55.426Z,997.97
2019-03-16T04:23:55.417Z,997.99
2019-03-16T04:24:55.416Z,998.01
2019-03-16T04:25:55.435Z,998.02
2019-03-16T04:26:55.383Z,998.10
2019-03-16T04:27:55.385Z,998.09
2019-03-16T04:28:55.363Z,998.08
2019-03-16T04:29:55.353Z,998.16
2019-03-16T04:30:55.340Z,998.14
2019-03-16T04:31:55.355Z,998.18
2019-03-16T04:32:55.319Z,998.19
2019-03-16T04:33:55.320Z,998.15
2019-03-16T04:34:55.298Z,998.18
2019-03-16T04:35:55.293Z,998.18
2019-03-16T04:36:55.317Z,998.11
2019-03-16T04:37:55.267Z,998.17
2019-03-16T04:38:55.256Z,998.11
2019-03-16T04:39:55.247Z,998.20
2019-03-16T04:40:55.238Z,998.16
2019-03-16T04:41:55.225Z,998.26
2019-03-16T04:42:55.236Z,998.18
2019-03-16T04:43:55.202Z,998.27
2019-03-16T04:44:55.190Z,998.26
2019-03-16T04:45:55.181Z,998.27
2019-03-16T04:46:55.170Z,998.31
2019-03-16T04:47:55.198Z,998.33
2019-03-16T04:48:55.148Z,998.26
2019-03-16T04:49:55.141Z,998.21
2019-03-16T04:50:55.130Z,998.28
2019-03-16T04:51:55.118Z,998.30
2019-03-16T04:52:55.107Z,998.30
2019-03-16T04:53:55.120Z,998.40
2019-03-16T04:54:55.173Z,998.31
2019-03-16T04:55:55.078Z,998.38
2019-03-16T04:56:55.063Z,998.38
2019-03-16T04:57:55.051Z,998.40
2019-03-16T04:58:55.114Z,998.39
2019-03-16T04:59:55.052Z,998.36
2019-03-16T05:00:55.021Z,998.38
2019-03-16T05:01:55.014Z,998.41
2019-03-16T05:02:54.998Z,998.39
2019-03-16T05:03:54.986Z,998.38
2019-03-16T05:04:55.000Z,998.40
2019-03-16T05:05:54.967Z,998.49
2019-03-16T05:06:54.956Z,998.43
2019-03-16T05:07:54.943Z,998.48
2019-03-16T05:08:54.933Z,998.47
2019-03-16T05:09:54.957Z,998.49
2019-03-16T05:10:54.911Z,998.45
2019-03-16T05:11:54.900Z,998.50
2019-03-16T05:12:54.925Z,998.45
2019-03-16T05:13:54.882Z,998.44
2019-03-16T05:14:54.869Z,998.46
2019-03-16T05:15:54.883Z,998.49
2019-03-16T05:16:54.848Z,998.50
2019-03-16T05:17:54.836Z,998.54
2019-03-16T05:18:54.824Z,998.56
2019-03-16T05:19:54.814Z,998.54
2019-03-16T05:20:54.845Z,998.58
2019-03-16T05:21:54.792Z,998.57
2019-03-16T05:22:54.780Z,998.57
2019-03-16T05:23:54.769Z,998.64
2019-03-16T05:24:54.761Z,998.69
2019-03-16T05:25:54.753Z,998.64
2019-03-16T05:26:54.762Z,998.67
2019-03-16T05:27:54.727Z,998.77
2019-03-16T05:28:54.715Z,998.76
2019-03-16T05:29:54.705Z,998.77
2019-03-16T05:30:54.697Z,998.72
2019-03-16T05:31:54.721Z,998.72
2019-03-16T05:32:54.672Z,998.83
2019-03-16T05:33:54.665Z,998.79
2019-03-16T05:34:56.708Z,998.81
2019-03-16T05:35:54.644Z,998.79
2019-03-16T05:36:56.030Z,998.76
2019-03-16T05:37:54.646Z,998.89
2019-03-16T05:38:54.608Z,998.78
2019-03-16T05:39:54.601Z,998.83
2019-03-16T05:40:54.589Z,998.85
2019-03-16T05:41:54.577Z,998.83
2019-03-16T05:42:54.604Z,998.88
2019-03-16T05:43:54.556Z,998.96
2019-03-16T05:44:54.545Z,998.99
2019-03-16T05:45:54.533Z,999.01
2019-03-16T05:46:54.523Z,999.08
2019-03-16T05:47:54.514Z,999.11
2019-03-16T05:48:54.524Z,999.04
2019-03-16T05:49:54.490Z,999.14
2019-03-16T05:50:57.382Z,999.14
2019-03-16T05:51:54.471Z,999.17
2019-03-16T05:52:54.460Z,999.15
2019-03-16T05:53:54.485Z,999.17
2019-03-16T05:54:54.440Z,999.18
2019-03-16T05:55:54.427Z,999.15
2019-03-16T05:56:54.416Z,999.18
2019-03-16T05:57:54.406Z,999.22
2019-03-16T05:58:54.395Z,999.26
2019-03-16T05:59:54.419Z,999.28
2019-03-16T06:00:54.373Z,999.30
2019-03-16T06:01:54.363Z,999.27
2019-03-16T06:02:54.352Z,999.32
2019-03-16T06:03:54.341Z,999.37
2019-03-16T06:04:54.367Z,999.40
2019-03-16T06:05:54.319Z,999.38
2019-03-16T06:06:54.309Z,999.33
2019-03-16T06:07:54.297Z,999.41
2019-03-16T06:08:54.289Z,999.47
2019-03-16T06:09:54.276Z,999.36
2019-03-16T06:10:54.290Z,999.42
2019-03-16T06:11:54.257Z,999.44
2019-03-16T06:12:54.246Z,999.44
2019-03-16T06:13:54.235Z,999.50
2019-03-16T06:14:54.224Z,999.51
2019-03-16T06:15:54.252Z,999.56
2019-03-16T06:16:54.202Z,999.58
2019-03-16T06:17:54.194Z,999.50
2019-03-16T06:18:54.182Z,999.60
2019-03-16T06:19:54.170Z,999.55
2019-03-16T06:20:54.159Z,999.60
2019-03-16T06:21:54.173Z,999.55
2019-03-16T06:22:54.134Z,999.60
2019-03-16T06:23:54.129Z,999.64
2019-03-16T06:24:54.115Z,999.61
2019-03-16T06:25:54.105Z,999.64
2019-03-16T06:26:54.134Z,999.66
2019-03-16T06:27:54.087Z,999.65
2019-03-16T06:28:54.072Z,999.69
2019-03-16T06:29:54.062Z,999.69
2019-03-16T06:30:54.051Z,999.73
2019-03-16T06:31:54.040Z,999.77
2019-03-16T06:32:54.052Z,999.73
2019-03-16T06:33:54.016Z,999.74
2019-03-16T06:34:54.005Z,999.74
2019-03-16T06:35:53.993Z,999.87
2019-03-16T06:36:53.982Z,999.76
2019-03-16T06:37:54.009Z,999.81
2019-03-16T06:38:53.960Z,999.80
2019-03-16T06:39:53.950Z,999.79
2019-03-16T06:40:53.944Z,999.87
2019-03-16T06:41:53.927Z,999.85
2019-03-16T06:42:53.915Z,999.78
2019-03-16T06:43:53.928Z,999.86
2019-03-16T06:44:53.896Z,999.78
2019-03-16T06:45:53.882Z,999.77
2019-03-16T06:46:53.875Z,999.87
2019-03-16T06:47:54.893Z,999.92
2019-03-16T06:48:53.888Z,999.88
2019-03-16T06:49:53.839Z,999.85
2019-03-16T06:50:53.828Z,999.95
2019-03-16T06:51:53.816Z,999.95
2019-03-16T06:52:53.808Z,999.98
2019-03-16T06:53:53.795Z,1000.04
2019-03-16T06:54:53.807Z,1000.02
2019-03-16T06:55:53.771Z,1000.00
2019-03-16T06:56:53.762Z,999.95
2019-03-16T06:57:53.751Z,999.99
2019-03-16T06:58:53.740Z,1000.01
2019-03-16T06:59:53.768Z,999.98
2019-03-16T07:00:53.717Z,1000.03
2019-03-16T07:01:53.707Z,1000.05
2019-03-16T07:02:53.695Z,1000.07
2019-03-16T07:03:53.693Z,1000.03
2019-03-16T07:04:53.673Z,1000.11
2019-03-16T07:05:53.690Z,1000.14
2019-03-16T07:06:53.651Z,1000.11
2019-03-16T07:07:53.641Z,1000.12
2019-03-16T07:08:53.631Z,1000.07
2019-03-16T07:09:53.617Z,1000.08
2019-03-16T07:10:53.646Z,1000.10
2019-03-16T07:11:53.597Z,1000.07
2019-03-16T07:12:53.591Z,1000.12
2019-03-16T07:13:53.576Z,1000.12
2019-03-16T07:14:53.569Z,1000.16
2019-03-16T07:15:53.557Z,1000.13
2019-03-16T07:17:01.950Z,1000.18
2019-03-16T07:17:54.534Z,1000.19
2019-03-16T07:18:58.858Z,1000.24
2019-03-16T07:19:54.510Z,1000.13
2019-03-16T07:20:53.502Z,1000.21
2019-03-16T07:21:53.530Z,1000.16
2019-03-16T07:22:53.478Z,1000.27
2019-03-16T07:23:53.469Z,1000.16
2019-03-16T07:24:53.462Z,1000.14
2019-03-16T07:25:53.445Z,1000.30
2019-03-16T07:26:53.440Z,1000.21
2019-03-16T07:27:53.452Z,1000.19
2019-03-16T07:28:53.415Z,1000.16
2019-03-16T07:29:53.403Z,1000.20
2019-03-16T07:30:53.395Z,1000.25
2019-03-16T07:31:53.385Z,1000.20
2019-03-16T07:32:53.408Z,1000.23
2019-03-16T07:33:53.362Z,1000.23
2019-03-16T07:34:53.350Z,1000.23
2019-03-16T07:35:53.338Z,1000.31
2019-03-16T07:36:53.326Z,1000.39
2019-03-16T07:37:53.317Z,1000.40
2019-03-16T07:38:53.332Z,1000.34
2019-03-16T07:39:53.295Z,1000.34
2019-03-16T07:40:53.302Z,1000.43
2019-03-16T07:41:53.273Z,1000.37
2019-03-16T07:42:53.264Z,1000.34
2019-03-16T07:43:53.292Z,1000.40
2019-03-16T07:44:53.245Z,1000.42
2019-03-16T07:45:53.239Z,1000.35
2019-03-16T07:46:53.221Z,1000.44
2019-03-16T07:47:53.209Z,1000.39
2019-03-16T07:48:53.199Z,1000.44
2019-03-16T07:49:53.213Z,1000.47
2019-03-16T07:50:53.182Z,1000.53
2019-03-16T07:51:53.172Z,1000.58
2019-03-16T07:52:53.156Z,1000.47
2019-03-16T07:53:53.147Z,1000.54
2019-03-16T07:54:53.177Z,1000.56
2019-03-16T07:55:53.128Z,1000.54
2019-03-16T07:56:53.114Z,1000.67
2019-03-16T07:57:53.104Z,1000.65
2019-03-16T07:58:53.090Z,1000.57
2019-03-16T07:59:53.080Z,1000.60
2019-03-16T08:00:53.095Z,1000.64
2019-03-16T08:01:53.060Z,1000.69
2019-03-16T08:02:53.048Z,1000.73
2019-03-16T08:03:53.038Z,1000.57
2019-03-16T08:04:53.028Z,1000.65
2019-03-16T08:05:53.050Z,1000.69
2019-03-16T08:06:53.008Z,1000.68
2019-03-16T08:07:52.997Z,1000.69
2019-03-16T08:08:52.986Z,1000.69
2019-03-16T08:09:52.972Z,1000.74
2019-03-16T08:10:52.960Z,1000.69
2019-03-16T08:11:53.313Z,1000.70
2019-03-16T08:12:52.941Z,1000.66
2019-03-16T08:13:52.926Z,1000.66
2019-03-16T08:14:52.915Z,1000.64
2019-03-16T08:15:52.905Z,1000.65
2019-03-16T08:16:52.932Z,1000.61
2019-03-16T08:17:52.883Z,1000.68
2019-03-16T08:18:52.914Z,1000.73
2019-03-16T08:19:52.857Z,1000.68
2019-03-16T08:20:52.847Z,1000.69
2019-03-16T08:21:52.837Z,1000.81
2019-03-16T08:22:52.850Z,1000.72
2019-03-16T08:23:53.890Z,1000.83
2019-03-16T08:24:52.803Z,1000.81
2019-03-16T08:25:52.812Z,1000.83
2019-03-16T08:26:52.779Z,1000.99
2019-03-16T08:27:54.578Z,1000.99
2019-03-16T08:28:52.759Z,1001.02
2019-03-16T08:29:52.749Z,1000.96
2019-03-16T08:30:52.738Z,1000.94
2019-03-16T08:31:52.727Z,1001.00
2019-03-16T08:32:52.714Z,1000.97
2019-03-16T08:33:52.727Z,1000.93
2019-03-16T08:34:52.691Z,1001.05
2019-03-16T08:35:52.686Z,1000.95
2019-03-16T08:36:52.669Z,1000.96
2019-03-16T08:37:52.659Z,1001.00
2019-03-16T08:38:52.683Z,1000.94
2019-03-16T08:39:52.636Z,1000.97
2019-03-16T08:40:52.625Z,1000.90
2019-03-16T08:41:52.616Z,1000.90
2019-03-16T08:42:52.606Z,1000.98
2019-03-16T08:43:52.592Z,1000.95
2019-03-16T08:44:52.607Z,1000.91
2019-03-16T08:45:52.570Z,1000.97
2019-03-16T08:46:52.559Z,1000.95
2019-03-16T08:47:52.555Z,1000.97
2019-03-16T08:48:52.536Z,1000.90
2019-03-16T08:49:52.554Z,1001.01
2019-03-16T08:50:52.517Z,1001.01
2019-03-16T08:51:52.504Z,1001.02
2019-03-16T08:52:53.774Z,1001.02
2019-03-16T08:53:52.482Z,1001.06
2019-03-16T08:54:52.506Z,1001.07
2019-03-16T08:55:52.457Z,1001.01
2019-03-16T08:56:52.448Z,1000.98
2019-03-16T08:57:52.437Z,1001.04
2019-03-16T08:58:52.428Z,1000.99
2019-03-16T08:59:52.413Z,1001.02
2019-03-16T09:00:52.427Z,1001.02
2019-03-16T09:01:52.392Z,1001.03
2019-03-16T09:02:52.386Z,1001.05
2019-03-16T09:03:52.371Z,1001.02
2019-03-16T09:04:52.359Z,1000.92
2019-03-16T09:05:52.383Z,1000.92
2019-03-16T09:06:53.043Z,1001.15
2019-03-16T09:07:52.327Z,1000.94
2019-03-16T09:08:52.317Z,1001.07
2019-03-16T09:09:52.307Z,1000.88
2019-03-16T09:10:52.294Z,1000.90
2019-03-16T09:11:52.308Z,1000.92
2019-03-16T09:12:55.332Z,1000.89
2019-03-16T09:13:52.263Z,1000.96
2019-03-16T09:14:52.251Z,1000.97
2019-03-16T09:15:52.241Z,1000.95
2019-03-16T09:16:52.264Z,1000.95
2019-03-16T09:17:52.217Z,1001.00
2019-03-16T09:18:52.207Z,1000.95
2019-03-16T09:19:52.198Z,1000.92
2019-03-16T09:20:52.189Z,1000.92
2019-03-16T09:21:52.176Z,1000.94
2019-03-16T09:22:52.193Z,1000.93
2019-03-16T09:23:52.156Z,1000.95
2019-03-16T09:24:52.141Z,1000.97
2019-03-16T09:25:52.133Z,1001.01
2019-03-16T09:26:52.122Z,1001.00
2019-03-16T09:27:52.145Z,1001.08
2019-03-16T09:28:59.993Z,1001.00
2019-03-16T09:29:53.087Z,1000.96
2019-03-16T09:30:52.075Z,1001.04
2019-03-16T09:31:52.065Z,1001.00
2019-03-16T09:32:52.057Z,1001.06
2019-03-16T09:33:52.067Z,1000.96
2019-03-16T09:34:52.031Z,1001.04
2019-03-16T09:35:52.020Z,1001.12
2019-03-16T09:36:52.011Z,1001.07
2019-03-16T09:37:51.997Z,1001.14
2019-03-16T09:38:52.023Z,1001.15
2019-03-16T09:39:51.977Z,1001.13
2019-03-16T09:40:51.965Z,1001.14
2019-03-16T09:41:51.953Z,1001.16
2019-03-16T09:42:51.943Z,1001.15
2019-03-16T09:43:51.933Z,1001.17
2019-03-16T09:44:51.946Z,1001.20
2019-03-16T09:45:51.909Z,1001.13
2019-03-16T09:46:51.927Z,1001.19
2019-03-16T09:47:51.888Z,1001.22
2019-03-16T09:48:51.877Z,1001.14
2019-03-16T09:49:51.918Z,1001.21
2019-03-16T09:50:51.859Z,1001.28
2019-03-16T09:51:51.848Z,1001.15
2019-03-16T09:52:51.833Z,1001.24
2019-03-16T09:53:51.820Z,1001.15
2019-03-16T09:54:51.810Z,1001.12
2019-03-16T09:55:51.824Z,1001.20
2019-03-16T09:57:01.054Z,1001.24
2019-03-16T09:57:52.785Z,1001.22
2019-03-16T09:58:51.765Z,1001.15
2019-03-16T09:59:51.756Z,1001.14
2019-03-16T10:00:51.779Z,1001.11
2019-03-16T10:01:51.734Z,1001.11
2019-03-16T10:02:51.721Z,1001.13
2019-03-16T10:03:51.711Z,1001.10
2019-03-16T10:04:51.704Z,1001.15
2019-03-16T10:05:51.690Z,1001.18
2019-03-16T10:06:51.702Z,1001.09
2019-03-16T10:07:51.668Z,1001.16
2019-03-16T10:08:51.658Z,1001.21
2019-03-16T10:09:51.648Z,1001.17
2019-03-16T10:10:51.633Z,1001.19
2019-03-16T10:13:00.392Z,1001.20
2019-03-16T10:14:00.381Z,1001.11
2019-03-16T10:15:00.393Z,1001.20
2019-03-16T10:16:00.361Z,1001.16
2019-03-16T10:17:00.386Z,1001.10
2019-03-16T10:18:00.336Z,1001.17
2019-03-16T10:19:00.330Z,1001.16
2019-03-16T10:20:00.370Z,1001.05
2019-03-16T10:21:00.309Z,1001.11
2019-03-16T10:22:00.296Z,1001.13
2019-03-16T10:23:00.310Z,1001.10
2019-03-16T10:24:00.282Z,1001.06
2019-03-16T10:25:00.397Z,1000.95
2019-03-16T10:26:00.253Z,1000.92
2019-03-16T10:27:00.244Z,1000.89
2019-03-16T10:28:00.268Z,1001.07
2019-03-16T10:29:00.220Z,1001.04
2019-03-16T10:30:00.537Z,1000.95
2019-03-16T10:31:00.202Z,1001.01
2019-03-16T10:32:00.193Z,1001.00
2019-03-16T10:33:00.177Z,1000.98
2019-03-16T10:34:00.194Z,1001.06
2019-03-16T10:35:00.462Z,1001.05
2019-03-16T10:36:00.150Z,1001.16
2019-03-16T10:37:00.136Z,1001.25
2019-03-16T10:38:00.124Z,1001.15
2019-03-16T10:39:00.156Z,1001.16
2019-03-16T10:40:00.104Z,1001.14
2019-03-16T10:41:00.109Z,1001.16
2019-03-16T10:42:00.087Z,1001.07
2019-03-16T10:43:00.073Z,1001.10
2019-03-16T10:44:00.062Z,1001.18
2019-03-16T10:45:00.075Z,1001.17
2019-03-16T10:46:00.041Z,1001.21
2019-03-16T10:47:00.032Z,1001.15
2019-03-16T10:48:00.020Z,1001.17
2019-03-16T10:49:00.009Z,1001.15
2019-03-16T10:50:00.023Z,1001.14
2019-03-16T10:50:59.987Z,1001.10
2019-03-16T10:51:59.995Z,1001.19
2019-03-16T10:52:59.966Z,1001.09
2019-03-16T10:53:59.956Z,1001.20
2019-03-16T10:54:59.981Z,1001.15
2019-03-16T10:55:59.934Z,1001.17
2019-03-16T10:56:59.926Z,1001.14
2019-03-16T10:57:59.914Z,1001.23
2019-03-16T10:58:59.904Z,1001.20
2019-03-16T10:59:59.892Z,1001.14
2019-03-16T11:00:59.915Z,1001.21
2019-03-16T11:01:59.875Z,1001.29
2019-03-16T11:02:59.863Z,1001.26
2019-03-16T11:03:59.849Z,1001.25
2019-03-16T11:04:59.860Z,1001.32
2019-03-16T11:05:59.865Z,1001.27
2019-03-16T11:06:59.886Z,1001.30
2019-03-16T11:07:59.805Z,1001.26
2019-03-16T11:08:59.795Z,1001.27
2019-03-16T11:09:59.784Z,1001.26
2019-03-16T11:10:59.772Z,1001.26
2019-03-16T11:11:59.796Z,1001.22
2019-03-16T11:12:59.752Z,1001.21
2019-03-16T11:13:59.741Z,1001.21
2019-03-16T11:14:59.731Z,1001.24
2019-03-16T11:15:59.720Z,1001.21
2019-03-16T11:16:59.735Z,1001.35
2019-03-16T11:17:59.705Z,1001.27
2019-03-16T11:18:59.688Z,1001.24
2019-03-16T11:19:59.681Z,1001.25
2019-03-16T11:20:59.668Z,1001.28
2019-03-16T11:21:59.700Z,1001.24
2019-03-16T11:22:59.647Z,1001.23
2019-03-16T11:23:59.638Z,1001.33
2019-03-16T11:24:59.626Z,1001.31
2019-03-16T11:25:59.614Z,1001.43
2019-03-16T11:27:06.738Z,1001.34
2019-03-16T11:27:59.634Z,1001.30
2019-03-16T11:29:08.381Z,1001.28
2019-03-16T11:30:00.573Z,1001.25
2019-03-16T11:30:59.560Z,1001.30
2019-03-16T11:31:59.548Z,1001.33
2019-03-16T11:32:59.575Z,1001.26
2019-03-16T11:33:59.529Z,1001.32
2019-03-16T11:34:59.518Z,1001.27
2019-03-16T11:35:59.505Z,1001.34
2019-03-16T11:36:59.497Z,1001.35
2019-03-16T11:37:59.486Z,1001.31
2019-03-16T11:38:59.498Z,1001.30
2019-03-16T11:39:59.462Z,1001.31
2019-03-16T11:40:59.455Z,1001.31
2019-03-16T11:41:59.440Z,1001.33
2019-03-16T11:42:59.429Z,1001.39
2019-03-16T11:43:59.446Z,1001.33
2019-03-16T11:44:59.409Z,1001.27
2019-03-16T11:45:59.399Z,1001.26
2019-03-16T11:46:59.390Z,1001.32
2019-03-16T11:47:59.377Z,1001.27
2019-03-16T11:48:59.400Z,1001.22
2019-03-16T11:49:59.374Z,1001.27
2019-03-16T11:50:59.350Z,1001.23
2019-03-16T11:51:59.333Z,1001.27
2019-03-16T11:52:59.324Z,1001.31
2019-03-16T11:53:59.314Z,1001.24
2019-03-16T11:54:59.325Z,1001.26
2019-03-16T11:55:59.292Z,1001.33
2019-03-16T11:56:59.280Z,1001.30
2019-03-16T11:57:59.270Z,1001.31
2019-03-16T11:58:59.260Z,1001.42
2019-03-16T11:59:59.287Z,1001.36
2019-03-16T12:00:59.290Z,1001.29
2019-03-16T12:02:05.276Z,1001.28
2019-03-16T12:03:00.214Z,1001.22
2019-03-16T12:03:59.207Z,1001.23
2019-03-16T12:04:59.193Z,1001.22
2019-03-16T12:05:59.210Z,1001.19
2019-03-16T12:06:59.187Z,1001.20
2019-03-16T12:07:59.179Z,1001.20
2019-03-16T12:08:59.152Z,1001.29
2019-03-16T12:09:59.140Z,1001.27
2019-03-16T12:10:59.156Z,1001.34
2019-03-16T12:11:59.117Z,1001.33
2019-03-16T12:12:59.106Z,1001.31
2019-03-16T12:13:59.099Z,1001.32
2019-03-16T12:14:59.085Z,1001.33
2019-03-16T12:15:59.127Z,1001.30
2019-03-16T12:16:59.064Z,1001.30
2019-03-16T12:17:59.065Z,1001.25
2019-03-16T12:18:59.042Z,1001.23
2019-03-16T12:19:59.029Z,1001.31